Time;durP1;ratioP1;P1;durP2;ratioP2;P2;SDS_P1;SDS_P2;PMS_P1;PMS_P2;Temp;Humidity;BMP_temperature;BMP_pressure;BME280_temperature;BME280_humidity;BME280_pressure;Samples;Min_cycle;Max_cycle;Signal;HPM_P1;HPM_P2
2024/01/17 00:00:41;;;;;;;32.63;14.00;;;;;;;-3.01;100.00;100195.50;5270083;28;20035;-71
2024/01/17 00:03:12;;;;;;;28.88;13.07;;;;;;;-3.04;100.00;100195.72;5270832;28;20048;-71
2024/01/17 00:05:42;;;;;;;27.02;13.18;;;;;;;-3.07;100.00;100195.88;5269227;28;20028;-71
2024/01/17 00:08:13;;;;;;;30.60;14.57;;;;;;;-3.10;100.00;100190.84;5272625;28;20027;-71
2024/01/17 00:10:43;;;;;;;39.35;14.93;;;;;;;-3.09;100.00;100187.28;5269095;28;20607;-71
2024/01/17 00:13:14;;;;;;;35.33;14.10;;;;;;;-3.06;100.00;100177.44;5269056;28;20024;-71
2024/01/17 00:15:45;;;;;;;28.25;13.60;;;;;;;-3.03;100.00;100160.66;5267805;28;20424;-71
2024/01/17 00:18:15;;;;;;;36.53;14.93;;;;;;;-3.02;100.00;100152.69;5270509;28;20027;-71
2024/01/17 00:20:46;;;;;;;44.97;15.00;;;;;;;-3.02;100.00;100151.84;5270186;28;20035;-71
2024/01/17 00:23:16;;;;;;;33.58;13.57;;;;;;;-3.07;100.00;100144.25;5269671;28;20027;-71
2024/01/17 00:25:47;;;;;;;42.13;14.15;;;;;;;-3.15;100.00;100143.91;5269468;28;20060;-71
2024/01/17 00:28:17;;;;;;;28.88;13.98;;;;;;;-3.23;100.00;100133.88;5269119;28;20625;-71
2024/01/17 00:30:48;;;;;;;35.88;14.98;;;;;;;-3.24;100.00;100129.56;5270437;28;20024;-71
2024/01/17 00:33:18;;;;;;;34.40;14.95;;;;;;;-3.26;100.00;100123.59;5269346;28;20023;-71
2024/01/17 00:35:49;;;;;;;35.55;14.48;;;;;;;-3.27;100.00;100113.19;5270813;28;20107;-71
2024/01/17 00:38:19;;;;;;;42.15;15.63;;;;;;;-3.25;100.00;100119.19;5269756;28;20023;-71
2024/01/17 00:40:49;;;;;;;36.33;14.32;;;;;;;-3.23;100.00;100112.06;5270267;28;20024;-71
2024/01/17 00:43:20;;;;;;;35.55;14.43;;;;;;;-3.22;100.00;100113.72;5268806;28;20046;-71
2024/01/17 00:45:50;;;;;;;37.38;15.13;;;;;;;-3.24;100.00;100113.84;5270845;28;20016;-71
2024/01/17 00:48:21;;;;;;;35.85;15.77;;;;;;;-3.23;100.00;100110.28;5269401;28;20542;-71
2024/01/17 00:50:51;;;;;;;37.33;16.10;;;;;;;-3.18;100.00;100107.34;5270486;28;20028;-71
2024/01/17 00:53:22;;;;;;;36.03;15.73;;;;;;;-3.16;100.00;100102.88;5268341;28;20377;-71
2024/01/17 00:55:52;;;;;;;38.83;17.23;;;;;;;-3.13;100.00;100093.00;5270437;28;20107;-71
2024/01/17 00:58:23;;;;;;;33.70;14.32;;;;;;;-3.14;100.00;100086.06;5268972;28;20438;-71
2024/01/17 01:00:53;;;;;;;30.45;13.73;;;;;;;-3.17;100.00;100080.19;5270378;28;20397;-71
2024/01/17 01:03:24;;;;;;;35.95;13.30;;;;;;;-3.29;100.00;100080.97;5268155;28;20020;-71
2024/01/17 01:05:54;;;;;;;33.10;13.70;;;;;;;-3.35;100.00;100084.81;5271767;28;20031;-71
2024/01/17 01:08:25;;;;;;;35.55;14.95;;;;;;;-3.40;100.00;100077.25;5268961;28;20020;-71
2024/01/17 01:10:55;;;;;;;32.58;15.77;;;;;;;-3.39;100.00;100071.03;5271009;28;20154;-72
2024/01/17 01:13:26;;;;;;;40.95;14.98;;;;;;;-3.37;100.00;100063.06;5268243;28;20023;-71
2024/01/17 01:15:56;;;;;;;39.30;16.50;;;;;;;-3.35;100.00;100068.25;5269852;28;20034;-71
2024/01/17 01:18:27;;;;;;;44.80;16.13;;;;;;;-3.30;100.00;100053.91;5268693;28;20041;-71
2024/01/17 01:20:57;;;;;;;38.08;16.13;;;;;;;-3.23;100.00;100051.72;5270055;28;20024;-71
2024/01/17 01:23:28;;;;;;;39.80;16.33;;;;;;;-3.20;100.00;100049.75;5266927;28;20111;-71
2024/01/17 01:25:58;;;;;;;35.90;14.55;;;;;;;-3.18;100.00;100049.63;5268506;28;20026;-71
2024/01/17 01:28:28;;;;;;;43.30;16.05;;;;;;;-3.19;100.00;100046.19;5268453;28;20052;-71
2024/01/17 01:30:59;;;;;;;44.78;17.50;;;;;;;-3.14;100.00;100046.72;5269831;28;20031;-71
2024/01/17 01:33:29;;;;;;;34.30;15.27;;;;;;;-3.13;100.00;100048.41;5267982;28;20027;-71
2024/01/17 01:36:00;;;;;;;39.22;14.80;;;;;;;-3.13;100.00;100037.91;5269723;28;20033;-71
2024/01/17 01:38:30;;;;;;;37.60;15.82;;;;;;;-3.08;100.00;100032.34;5265998;28;20115;-71
2024/01/17 01:41:01;;;;;;;39.10;15.27;;;;;;;-3.10;100.00;100028.16;5267488;28;20107;-71
2024/01/17 01:43:31;;;;;;;36.63;14.75;;;;;;;-3.08;100.00;100024.50;5264966;28;20474;-71
2024/01/17 01:46:13;;;;;;;36.72;13.70;;;;;;;-3.06;100.00;100019.13;5270928;28;20495;-71
2024/01/17 01:48:45;;;;;;;31.05;13.55;;;;;;;-3.00;100.00;100016.13;5267381;28;20028;-71
2024/01/17 01:51:16;;;;;;;34.10;14.35;;;;;;;-3.00;100.00;100010.88;5268740;28;20489;-71
2024/01/17 01:53:49;;;;;;;41.75;13.45;;;;;;;-2.97;100.00;100002.78;5269224;28;20501;-71
2024/01/17 01:56:22;;;;;;;34.45;12.32;;;;;;;-2.97;100.00;100003.63;5268680;28;20485;-71
2024/01/17 01:58:54;;;;;;;33.22;12.57;;;;;;;-3.00;100.00;100003.84;5269152;28;20028;-71
2024/01/17 02:01:26;;;;;;;29.55;10.98;;;;;;;-2.98;100.00;99998.50;5268255;28;20032;-71
2024/01/17 02:04:00;;;;;;;28.42;12.20;;;;;;;-2.98;100.00;99996.72;5269171;28;20100;-72
2024/01/17 02:06:33;;;;;;;28.30;11.27;;;;;;;-2.98;100.00;99983.59;5268773;28;20047;-72
2024/01/17 02:09:04;;;;;;;25.73;11.55;;;;;;;-2.96;100.00;99980.84;5271258;28;20023;-72
2024/01/17 02:11:36;;;;;;;34.33;10.88;;;;;;;-2.98;100.00;99970.47;5272545;28;20519;-71
2024/01/17 02:14:06;;;;;;;27.63;11.35;;;;;;;-2.99;100.00;99973.19;5269593;28;20028;-71
2024/01/17 02:16:38;;;;;;;28.33;11.43;;;;;;;-3.08;100.00;99974.63;5271612;28;20054;-71
2024/01/17 02:19:12;;;;;;;27.65;11.68;;;;;;;-3.14;100.00;99975.03;5271311;27;20103;-71
2024/01/17 02:21:43;;;;;;;29.63;11.73;;;;;;;-3.25;100.00;99965.25;5272361;28;20038;-71
2024/01/17 02:24:22;;;;;;;29.90;11.07;;;;;;;-3.30;100.00;99961.25;5267910;28;20016;-72
2024/01/17 02:26:53;;;;;;;27.02;11.30;;;;;;;-3.29;100.00;99953.28;5273987;28;20035;-72
2024/01/17 02:29:24;;;;;;;26.30;12.02;;;;;;;-3.26;100.00;99954.88;5271650;28;20024;-71
2024/01/17 02:31:55;;;;;;;25.80;11.32;;;;;;;-3.27;100.00;99943.50;5273409;28;20020;-71
2024/01/17 02:34:26;;;;;;;30.67;12.02;;;;;;;-3.23;100.00;99944.16;5271475;28;20512;-72
2024/01/17 02:36:57;;;;;;;29.92;11.77;;;;;;;-3.21;100.00;99943.13;5273459;28;20039;-71
2024/01/17 02:39:27;;;;;;;25.90;11.48;;;;;;;-3.19;100.00;99935.16;5271873;28;20051;-73
2024/01/17 02:41:58;;;;;;;28.25;11.80;;;;;;;-3.15;100.00;99926.13;5272889;28;20023;-72
2024/01/17 02:44:28;;;;;;;24.48;11.43;;;;;;;-3.14;100.00;99926.03;5271356;28;20024;-71
2024/01/17 02:46:58;;;;;;;30.15;11.68;;;;;;;-3.09;100.00;99917.84;5273423;28;20064;-71
2024/01/17 02:49:29;;;;;;;25.63;10.50;;;;;;;-3.03;100.00;99919.22;5271519;28;20023;-71
2024/01/17 02:52:00;;;;;;;21.42;10.57;;;;;;;-3.06;100.00;99906.28;5272774;28;20419;-71
2024/01/17 02:54:31;;;;;;;28.42;10.00;;;;;;;-3.08;100.00;99906.41;5268541;28;20024;-71
2024/01/17 02:57:01;;;;;;;25.52;11.07;;;;;;;-3.08;100.00;99913.44;5268889;28;20028;-72
2024/01/17 02:59:33;;;;;;;27.27;10.88;;;;;;;-3.06;100.00;99894.03;5268866;28;20024;-71
2024/01/17 03:02:07;;;;;;;26.05;10.80;;;;;;;-3.10;100.00;99891.72;5271427;28;20447;-71
2024/01/17 03:04:38;;;;;;;27.27;11.13;;;;;;;-3.14;100.00;99888.47;5270127;28;20020;-73
2024/01/17 03:07:08;;;;;;;28.70;10.98;;;;;;;-3.18;100.00;99885.19;5273333;28;20061;-71
2024/01/17 03:09:46;;;;;;;21.63;9.43;;;;;;;-3.20;100.00;99870.50;5272054;28;20077;-72
2024/01/17 03:12:19;;;;;;;26.33;10.75;;;;;;;-3.21;100.00;99864.44;5271871;28;20020;-71
2024/01/17 03:14:49;;;;;;;25.23;10.57;;;;;;;-3.23;100.00;99855.81;5269155;28;20544;-71
2024/01/17 03:17:20;;;;;;;29.60;10.40;;;;;;;-3.22;100.00;99859.25;5271221;28;20032;-71
2024/01/17 03:19:51;;;;;;;31.00;10.93;;;;;;;-3.20;100.00;99849.53;5271976;28;20076;-71
2024/01/17 03:22:22;;;;;;;29.95;9.98;;;;;;;-3.21;100.00;99842.59;5270838;28;20027;-72
2024/01/17 03:24:53;;;;;;;29.08;9.65;;;;;;;-3.21;100.00;99834.72;5271962;28;20393;-71
2024/01/17 03:27:28;;;;;;;25.55;10.45;;;;;;;-3.17;100.00;99833.56;5266683;28;20838;-72
2024/01/17 03:29:58;;;;;;;22.42;9.77;;;;;;;-3.12;100.00;99832.31;5269736;28;20157;-71
2024/01/17 03:32:29;;;;;;;20.42;9.15;;;;;;;-3.08;100.00;99822.44;5270865;28;20111;-71
2024/01/17 03:35:00;;;;;;;27.70;10.30;;;;;;;-3.02;100.00;99813.31;5271902;28;20031;-71
2024/01/17 03:37:31;;;;;;;23.35;9.75;;;;;;;-2.95;100.00;99818.03;5268564;28;20035;-72
2024/01/17 03:40:02;;;;;;;27.13;10.02;;;;;;;-2.91;100.00;99814.28;5271496;28;20031;-71
2024/01/17 03:42:32;;;;;;;26.17;9.90;;;;;;;-2.84;100.00;99806.81;5266197;28;20044;-72
2024/01/17 03:45:03;;;;;;;29.33;10.93;;;;;;;-2.83;100.00;99784.00;5264811;28;20028;-72
2024/01/17 03:47:34;;;;;;;27.13;10.48;;;;;;;-2.84;100.00;99788.44;5268360;28;20049;-71
2024/01/17 03:50:05;;;;;;;30.45;10.52;;;;;;;-2.82;100.00;99775.19;5265035;28;20107;-72
2024/01/17 03:52:36;;;;;;;20.67;10.02;;;;;;;-2.81;100.00;99761.97;5265810;28;20369;-72
2024/01/17 03:55:07;;;;;;;24.23;9.88;;;;;;;-2.79;100.00;99759.25;5264802;28;20052;-71
2024/01/17 03:57:37;;;;;;;23.80;10.65;;;;;;;-2.78;100.00;99747.78;5267731;28;20031;-74
2024/01/17 04:00:10;;;;;;;30.70;10.63;;;;;;;-2.78;100.00;99735.50;5265832;28;20145;-72
2024/01/17 04:02:40;;;;;;;31.00;10.43;;;;;;;-2.81;100.00;99729.63;5265094;28;20032;-71
2024/01/17 04:05:11;;;;;;;23.45;9.85;;;;;;;-2.91;100.00;99717.16;5265279;28;20063;-72
2024/01/17 04:07:41;;;;;;;26.58;10.43;;;;;;;-2.94;100.00;99713.91;5267706;28;20027;-72
2024/01/17 04:10:12;;;;;;;24.55;9.90;;;;;;;-3.00;100.00;99711.72;5265812;28;20501;-72
2024/01/17 04:12:42;;;;;;;23.75;9.60;;;;;;;-3.08;100.00;99707.00;5265614;28;20477;-71
2024/01/17 04:15:13;;;;;;;22.10;10.30;;;;;;;-3.11;100.00;99691.50;5265086;28;20065;-73
2024/01/17 04:17:43;;;;;;;25.73;10.10;;;;;;;-3.18;100.00;99691.06;5265259;28;20035;-72
2024/01/17 04:20:14;;;;;;;23.98;10.93;;;;;;;-3.21;100.00;99686.03;5265944;28;20024;-72
2024/01/17 04:22:45;;;;;;;29.42;10.50;;;;;;;-3.28;100.00;99681.31;5265324;28;20032;-71
2024/01/17 04:25:15;;;;;;;22.23;10.18;;;;;;;-3.29;100.00;99682.28;5264890;28;20077;-72
2024/01/17 04:27:46;;;;;;;25.80;11.02;;;;;;;-3.29;100.00;99672.63;5265022;28;20032;-72
2024/01/17 04:30:16;;;;;;;33.58;11.00;;;;;;;-3.32;100.00;99662.31;5265306;28;20020;-73
2024/01/17 04:32:47;;;;;;;26.55;10.32;;;;;;;-3.36;100.00;99649.53;5265844;28;20032;-73
2024/01/17 04:35:18;;;;;;;27.52;9.38;;;;;;;-3.34;100.00;99658.16;5265733;28;20027;-73
2024/01/17 04:37:49;;;;;;;23.40;10.25;;;;;;;-3.34;100.00;99640.63;5266157;28;20385;-71
2024/01/17 04:40:20;;;;;;;30.95;10.85;;;;;;;-3.31;100.00;99629.94;5266770;28;20017;-72
2024/01/17 04:42:51;;;;;;;29.90;10.95;;;;;;;-3.27;100.00;99630.53;5265384;28;20067;-71
2024/01/17 04:45:22;;;;;;;22.90;10.15;;;;;;;-3.21;100.00;99632.75;5265164;28;20047;-73
2024/01/17 04:47:52;;;;;;;33.17;11.07;;;;;;;-3.19;100.00;99625.59;5267144;28;20059;-72
2024/01/17 04:50:23;;;;;;;28.85;11.25;;;;;;;-3.13;100.00;99625.16;5259351;28;20016;-71
2024/01/17 04:52:53;;;;;;;30.17;10.95;;;;;;;-3.10;100.00;99614.44;5266739;28;20028;-71
2024/01/17 04:55:24;;;;;;;27.48;10.52;;;;;;;-3.08;100.00;99607.28;5265113;28;20077;-73
2024/01/17 04:57:54;;;;;;;28.77;9.35;;;;;;;-3.06;100.00;99604.56;5265839;28;20020;-72
2024/01/17 05:00:25;;;;;;;27.05;11.05;;;;;;;-3.04;100.00;99605.28;5265656;28;20097;-71
2024/01/17 05:02:56;;;;;;;31.00;10.40;;;;;;;-3.04;100.00;99602.66;5265436;28;20086;-72
2024/01/17 05:05:27;;;;;;;31.50;10.68;;;;;;;-3.08;100.00;99603.84;5264864;28;20063;-72
2024/01/17 05:07:57;;;;;;;25.08;10.15;;;;;;;-3.09;100.00;99597.75;5267014;28;20054;-72
2024/01/17 05:10:28;;;;;;;24.85;10.55;;;;;;;-3.07;100.00;99597.63;5266989;28;20028;-73
2024/01/17 05:12:58;;;;;;;23.95;10.73;;;;;;;-3.05;100.00;99595.75;5265709;28;20081;-72
2024/01/17 05:15:29;;;;;;;22.77;10.48;;;;;;;-3.01;100.00;99591.94;5265027;28;20107;-74
2024/01/17 05:17:59;;;;;;;25.85;11.27;;;;;;;-2.97;100.00;99596.84;5266981;28;20032;-71
2024/01/17 05:20:30;;;;;;;24.77;10.70;;;;;;;-2.93;100.00;99589.59;5265492;28;20040;-71
2024/01/17 05:23:01;;;;;;;26.67;10.40;;;;;;;-2.89;100.00;99578.78;5265477;28;20020;-73
2024/01/17 05:25:32;;;;;;;31.05;10.70;;;;;;;-2.87;100.00;99584.75;5266547;28;20034;-71
2024/01/17 05:28:04;;;;;;;34.55;12.20;;;;;;;-2.83;100.00;99574.88;5265312;28;20441;-73
2024/01/17 05:30:35;;;;;;;25.25;10.15;;;;;;;-2.81;100.00;99566.88;5264674;28;20035;-71
2024/01/17 05:33:05;;;;;;;26.60;9.65;;;;;;;-2.79;100.00;99559.75;5267213;28;20049;-72
2024/01/17 05:35:36;;;;;;;33.08;11.68;;;;;;;-2.76;100.00;99552.47;5265927;28;20032;-72
2024/01/17 05:38:06;;;;;;;32.88;10.07;;;;;;;-2.73;100.00;99554.03;5265155;28;20030;-72
2024/01/17 05:40:37;;;;;;;21.90;9.57;;;;;;;-2.70;100.00;99557.28;5264905;28;20028;-72
2024/01/17 05:43:07;;;;;;;22.75;9.95;;;;;;;-2.68;100.00;99544.03;5265837;28;20031;-72
2024/01/17 05:45:38;;;;;;;25.92;9.80;;;;;;;-2.66;100.00;99544.72;5266548;28;20028;-72
2024/01/17 05:48:08;;;;;;;31.73;10.93;;;;;;;-2.63;100.00;99544.53;5265800;28;20032;-71
2024/01/17 05:50:39;;;;;;;23.92;9.57;;;;;;;-2.62;100.00;99540.94;5265693;28;20115;-73
2024/01/17 05:53:09;;;;;;;23.55;9.18;;;;;;;-2.59;100.00;99532.84;5266660;28;20097;-72
2024/01/17 05:55:40;;;;;;;30.65;10.02;;;;;;;-2.59;100.00;99514.47;5265335;28;20165;-72
2024/01/17 05:58:11;;;;;;;30.35;10.95;;;;;;;-2.57;100.00;99522.22;5266887;28;20775;-72
2024/01/17 06:00:41;;;;;;;24.60;9.60;;;;;;;-2.57;100.00;99517.78;5266613;28;20393;-72
2024/01/17 06:03:11;;;;;;;23.40;9.75;;;;;;;-2.57;100.00;99517.78;5265645;28;20683;-72
2024/01/17 06:05:42;;;;;;;24.55;9.70;;;;;;;-2.56;100.00;99516.00;5267102;28;20132;-73
2024/01/17 06:08:12;;;;;;;26.38;9.27;;;;;;;-2.53;100.00;99519.25;5265505;28;20031;-72
2024/01/17 06:10:43;;;;;;;24.42;9.75;;;;;;;-2.53;100.00;99518.41;5265797;28;20107;-72
2024/01/17 06:13:13;;;;;;;21.52;9.32;;;;;;;-2.52;100.00;99502.53;5266306;28;20016;-72
2024/01/17 06:15:44;;;;;;;24.17;10.20;;;;;;;-2.52;100.00;99496.44;5266437;28;20415;-72
2024/01/17 06:18:14;;;;;;;28.92;9.38;;;;;;;-2.52;100.00;99494.66;5264598;28;20035;-71
2024/01/17 06:20:46;;;;;;;27.63;9.65;;;;;;;-2.51;100.00;99498.13;5267361;28;20486;-72
2024/01/17 06:23:17;;;;;;;23.35;8.65;;;;;;;-2.50;100.00;99494.56;5265292;28;20020;-71
2024/01/17 06:25:47;;;;;;;30.88;10.65;;;;;;;-2.50;100.00;99489.31;5267284;28;20477;-72
2024/01/17 06:28:18;;;;;;;25.50;10.07;;;;;;;-2.54;100.00;99483.44;5266894;28;20532;-72
2024/01/17 06:30:49;;;;;;;27.48;10.45;;;;;;;-2.51;100.00;99474.47;5260531;28;20085;-72
2024/01/17 06:33:19;;;;;;;23.70;9.65;;;;;;;-2.50;100.00;99469.13;5264906;28;20027;-72
2024/01/17 06:35:50;;;;;;;25.35;10.13;;;;;;;-2.51;100.00;99456.97;5266812;28;20024;-74
2024/01/17 06:38:20;;;;;;;31.73;11.00;;;;;;;-2.46;100.00;99454.81;5266019;28;20103;-73
2024/01/17 06:40:50;;;;;;;26.80;9.55;;;;;;;-2.46;100.00;99452.19;5265099;28;20509;-72
2024/01/17 06:43:21;;;;;;;22.90;9.38;;;;;;;-2.49;100.00;99447.16;5265084;28;20024;-72
2024/01/17 06:45:51;;;;;;;27.50;10.57;;;;;;;-2.47;100.00;99439.16;5266798;28;20024;-72
2024/01/17 06:48:22;;;;;;;28.70;10.25;;;;;;;-2.49;100.00;99431.41;5265095;28;20028;-74
2024/01/17 06:50:52;;;;;;;25.80;10.15;;;;;;;-2.51;100.00;99425.44;5266826;28;20066;-73
2024/01/17 06:53:23;;;;;;;31.23;10.40;;;;;;;-2.47;100.00;99426.03;5265579;28;20110;-72
2024/01/17 06:55:53;;;;;;;28.00;10.25;;;;;;;-2.47;100.00;99408.47;5270342;28;20051;-72
2024/01/17 06:58:24;;;;;;;21.08;9.98;;;;;;;-2.46;100.00;99415.44;5270149;28;20027;-72
2024/01/17 07:00:54;;;;;;;31.50;11.23;;;;;;;-2.45;100.00;99400.50;5270353;28;20103;-72
2024/01/17 07:03:25;;;;;;;25.25;10.70;;;;;;;-2.45;100.00;99396.06;5270179;28;20031;-72
2024/01/17 07:05:55;;;;;;;29.02;10.55;;;;;;;-2.42;100.00;99392.38;5270561;28;20123;-72
2024/01/17 07:08:26;;;;;;;27.60;10.73;;;;;;;-2.43;100.00;99393.31;5270093;28;20060;-72
2024/01/17 07:10:56;;;;;;;23.65;9.85;;;;;;;-2.42;100.00;99387.13;5270386;28;20118;-73
2024/01/17 07:13:27;;;;;;;26.23;10.48;;;;;;;-2.40;100.00;99391.31;5269396;28;20027;-72
2024/01/17 07:15:57;;;;;;;25.70;10.68;;;;;;;-2.40;100.00;99388.69;5270635;28;20107;-72
2024/01/17 07:18:28;;;;;;;23.63;10.00;;;;;;;-2.37;100.00;99387.59;5266376;28;20024;-73
2024/01/17 07:20:59;;;;;;;30.23;11.52;;;;;;;-2.36;100.00;99387.50;5271026;28;20031;-73
2024/01/17 07:23:29;;;;;;;30.65;11.15;;;;;;;-2.32;100.00;99379.34;5269249;28;20020;-72
2024/01/17 07:26:00;;;;;;;30.23;11.27;;;;;;;-2.34;100.00;99376.84;5269068;28;20032;-72
2024/01/17 07:28:31;;;;;;;32.92;11.05;;;;;;;-2.32;100.00;99374.94;5270008;28;20028;-74
2024/01/17 07:31:01;;;;;;;27.52;10.88;;;;;;;-2.30;100.00;99369.56;5271026;28;20019;-72
2024/01/17 07:33:32;;;;;;;22.50;10.20;;;;;;;-2.29;100.00;99366.81;5269882;28;20496;-73
2024/01/17 07:36:02;;;;;;;27.98;10.43;;;;;;;-2.28;100.00;99357.16;5270775;28;20678;-72
2024/01/17 07:38:33;;;;;;;29.77;11.18;;;;;;;-2.25;100.00;99346.41;5269838;28;20024;-73
2024/01/17 07:41:03;;;;;;;27.58;11.02;;;;;;;-2.23;100.00;99349.75;5270480;28;20122;-73
2024/01/17 07:43:34;;;;;;;27.17;10.40;;;;;;;-2.23;100.00;99336.59;5269472;28;20028;-72
2024/01/17 07:46:05;;;;;;;29.05;10.40;;;;;;;-2.22;100.00;99328.59;5268468;28;20042;-72
2024/01/17 07:48:36;;;;;;;24.70;10.13;;;;;;;-2.19;100.00;99330.97;5270387;28;20124;-72
2024/01/17 07:51:06;;;;;;;28.45;11.30;;;;;;;-2.16;100.00;99329.88;5270578;28;20073;-72
2024/01/17 07:53:38;;;;;;;25.58;10.57;;;;;;;-2.15;100.00;99324.53;5269281;28;20028;-73
2024/01/17 07:56:09;;;;;;;30.67;10.68;;;;;;;-2.15;100.00;99323.69;5270926;28;20023;-72
2024/01/17 07:58:40;;;;;;;27.52;10.63;;;;;;;-2.15;100.00;99314.03;5270653;28;20020;-73
2024/01/17 08:01:10;;;;;;;25.83;11.20;;;;;;;-2.14;100.00;99304.34;5270509;28;20083;-73
2024/01/17 08:03:41;;;;;;;26.88;10.10;;;;;;;-2.09;100.00;99310.91;5269482;28;20024;-72
2024/01/17 08:06:12;;;;;;;25.40;10.75;;;;;;;-2.09;100.00;99312.69;5269961;28;20415;-74
2024/01/17 08:08:42;;;;;;;28.58;10.18;;;;;;;-2.05;100.00;99306.22;5270230;28;20100;-74
2024/01/17 08:11:13;;;;;;;25.60;10.68;;;;;;;-2.02;100.00;99299.88;5270859;28;20027;-72
2024/01/17 08:13:44;;;;;;;35.58;10.68;;;;;;;-2.03;100.00;99293.78;5270321;28;20032;-73
2024/01/17 08:16:15;;;;;;;26.33;10.88;;;;;;;-1.99;100.00;99282.09;5269772;28;20099;-73
2024/01/17 08:18:45;;;;;;;26.83;10.15;;;;;;;-1.97;100.00;99274.91;5270538;28;20725;-72
2024/01/17 08:21:16;;;;;;;28.17;11.95;;;;;;;-1.96;100.00;99262.59;5269543;28;20457;-73
2024/01/17 08:23:46;;;;;;;26.02;10.60;;;;;;;-1.95;100.00;99248.50;5270793;28;20039;-73
2024/01/17 08:26:17;;;;;;;21.80;9.63;;;;;;;-1.89;100.00;99253.25;5267727;28;20049;-73
2024/01/17 08:28:47;;;;;;;22.77;9.35;;;;;;;-1.88;100.00;99255.75;5270391;28;20073;-72
2024/01/17 08:31:17;;;;;;;28.55;11.10;;;;;;;-1.82;100.00;99249.97;5267903;28;20153;-73
2024/01/17 08:33:49;;;;;;;31.67;12.18;;;;;;;-1.75;100.00;99242.44;5269671;28;20159;-73
2024/01/17 08:36:20;;;;;;;29.52;11.35;;;;;;;-1.74;100.00;99230.13;5268817;28;20630;-73
2024/01/17 08:38:50;;;;;;;31.67;11.02;;;;;;;-1.69;100.00;99225.31;5270592;28;20028;-73
2024/01/17 08:41:21;;;;;;;29.77;11.48;;;;;;;-1.68;100.00;99226.97;5268629;27;20028;-72
2024/01/17 08:43:51;;;;;;;34.40;11.50;;;;;;;-1.67;100.00;99226.84;5270281;28;20036;-72
2024/01/17 08:46:21;;;;;;;31.98;11.45;;;;;;;-1.64;100.00;99220.50;5268705;28;20362;-72
2024/01/17 08:48:52;;;;;;;32.90;11.60;;;;;;;-1.66;100.00;99217.16;5270383;28;20071;-74
2024/01/17 08:51:24;;;;;;;25.77;12.05;;;;;;;-1.63;100.00;99219.53;5268830;28;20027;-72
2024/01/17 08:53:55;;;;;;;30.92;11.90;;;;;;;-1.60;100.00;99219.28;5270278;28;20073;-73
2024/01/17 08:56:25;;;;;;;24.65;11.20;;;;;;;-1.59;100.00;99210.44;5268756;28;20396;-72
2024/01/17 08:58:56;;;;;;;28.83;11.50;;;;;;;-1.58;100.00;99205.03;5270530;28;20595;-72
2024/01/17 09:01:27;;;;;;;36.05;12.68;;;;;;;-1.57;100.00;99195.34;5268833;28;20066;-72
2024/01/17 09:03:57;;;;;;;31.63;11.93;;;;;;;-1.53;100.00;99193.31;5269935;28;20460;-72
2024/01/17 09:06:27;;;;;;;30.10;12.20;;;;;;;-1.51;100.00;99197.47;5269400;28;20126;-72
2024/01/17 09:08:58;;;;;;;28.65;11.45;;;;;;;-1.44;100.00;99190.72;5275957;28;20031;-72
2024/01/17 09:11:29;;;;;;;29.15;12.25;;;;;;;-1.41;100.00;99190.44;5275005;28;20024;-72
2024/01/17 09:13:59;;;;;;;29.80;11.18;;;;;;;-1.40;100.00;99181.63;5269917;28;20027;-72
2024/01/17 09:16:30;;;;;;;25.70;11.35;;;;;;;-1.40;100.00;99168.47;5272865;28;20016;-73
2024/01/17 09:19:01;;;;;;;25.02;11.32;;;;;;;-1.37;100.00;99178.72;5264887;28;20051;-72
2024/01/17 09:21:31;;;;;;;29.88;11.27;;;;;;;-1.33;100.00;99179.28;5262706;28;20024;-72
2024/01/17 09:24:02;;;;;;;34.42;12.07;;;;;;;-1.32;100.00;99181.78;5267516;28;20076;-72
2024/01/17 09:26:33;;;;;;;27.02;11.40;;;;;;;-1.34;100.00;99175.81;5264358;28;20035;-72
2024/01/17 09:29:04;;;;;;;28.55;11.93;;;;;;;-1.26;100.00;99174.31;5269817;28;20027;-72
2024/01/17 09:31:35;;;;;;;28.92;11.40;;;;;;;-1.21;100.00;99172.97;5268281;28;20630;-72
2024/01/17 09:34:06;;;;;;;27.65;11.68;;;;;;;-1.20;100.00;99174.66;5270749;28;20024;-72
2024/01/17 09:36:37;;;;;;;33.38;11.60;;;;;;;-1.20;100.00;99172.03;5272604;28;20035;-72
2024/01/17 09:39:07;;;;;;;29.25;11.07;;;;;;;-1.17;100.00;99163.84;5265299;28;20356;-73
2024/01/17 09:41:37;;;;;;;32.42;11.18;;;;;;;-1.09;100.00;99171.91;5268420;28;20424;-72
2024/01/17 09:44:08;;;;;;;32.92;12.32;;;;;;;-1.10;100.00;99175.53;5275421;28;20119;-72
2024/01/17 09:46:42;;;;;;;29.90;12.88;;;;;;;-1.07;100.00;99177.88;5267864;28;20020;-72
2024/01/17 09:49:13;;;;;;;30.45;11.27;;;;;;;-1.04;100.00;99174.16;5271353;28;20040;-72
2024/01/17 09:51:44;;;;;;;30.67;10.95;;;;;;;-1.04;100.00;99174.16;5272278;28;20031;-72
2024/01/17 09:54:17;;;;;;;37.03;11.15;;;;;;;-1.02;100.00;99181.91;5274191;28;20024;-72
2024/01/17 09:56:49;;;;;;;24.60;11.05;;;;;;;-1.07;100.00;99185.75;5275258;28;20036;-73
2024/01/17 09:59:27;;;;;;;31.83;11.30;;;;;;;-1.06;100.00;99176.06;5267879;28;20043;-73
2024/01/17 10:01:58;;;;;;;28.65;12.15;;;;;;;-1.03;100.00;99181.06;5269940;28;20023;-72
2024/01/17 10:04:29;;;;;;;29.17;12.20;;;;;;;-0.99;100.00;99168.50;5273054;28;20035;-72
2024/01/17 10:06:59;;;;;;;32.88;12.52;;;;;;;-0.96;100.00;99162.94;5275365;28;20035;-72
2024/01/17 10:09:30;;;;;;;29.95;12.68;;;;;;;-0.93;100.00;99160.06;5268007;28;20408;-72
2024/01/17 10:12:01;;;;;;;32.95;11.95;;;;;;;-0.93;100.00;99150.34;5269485;28;20035;-72
2024/01/17 10:14:32;;;;;;;35.85;13.60;;;;;;;-0.88;100.00;99150.78;5267693;28;20026;-72
2024/01/17 10:17:05;;;;;;;32.03;12.38;;;;;;;-0.84;100.00;99146.09;5270375;28;20468;-73
2024/01/17 10:19:35;;;;;;;32.88;13.95;;;;;;;-0.81;100.00;99145.81;5272363;28;20031;-72
2024/01/17 10:22:10;;;;;;;36.65;13.23;;;;;;;-0.77;100.00;99146.38;5269094;28;20042;-73
2024/01/17 10:24:41;;;;;;;30.52;12.05;;;;;;;-0.76;100.00;99140.13;5268136;28;20028;-72
2024/01/17 10:27:11;;;;;;;32.38;11.95;;;;;;;-0.77;100.00;99134.03;5267008;28;20035;-72
2024/01/17 10:29:41;;;;;;;32.45;12.57;;;;;;;-0.73;100.00;99130.16;5269070;28;20107;-73
2024/01/17 10:32:12;;;;;;;31.70;11.82;;;;;;;-0.68;100.00;99127.13;5272894;28;20120;-73
2024/01/17 10:34:42;;;;;;;31.17;12.23;;;;;;;-0.69;100.00;99126.28;5272259;28;20024;-72
2024/01/17 10:37:14;;;;;;;31.15;12.52;;;;;;;-0.70;100.00;99119.38;5272745;28;20044;-73
2024/01/17 10:39:44;;;;;;;27.40;11.85;;;;;;;-0.64;100.00;99112.72;5272979;28;20485;-72
2024/01/17 10:42:20;;;;;;;42.55;12.38;;;;;;;-0.64;100.00;99118.81;5278095;28;20024;-72
2024/01/17 10:44:56;;;;;;;27.35;12.35;;;;;;;-0.70;100.00;99111.47;5272645;28;20116;-72
2024/01/17 10:47:26;;;;;;;27.88;12.02;;;;;;;-0.79;100.00;99099.13;5271435;28;20027;-72
2024/01/17 10:49:57;;;;;;;33.92;12.63;;;;;;;-0.83;100.00;99095.91;5273458;28;20388;-73
2024/01/17 10:52:35;;;;;;;34.83;13.90;;;;;;;-0.79;100.00;99086.78;5271241;28;20394;-73
2024/01/17 10:55:08;;;;;;;35.25;13.30;;;;;;;-0.78;100.00;99095.50;5273876;28;20035;-72
2024/01/17 10:57:41;;;;;;;38.05;14.43;;;;;;;-0.75;100.00;99092.63;5275595;28;20587;-73
2024/01/17 11:00:16;;;;;;;38.30;12.95;;;;;;;-0.76;100.00;99082.19;5270989;28;20020;-73
2024/01/17 11:02:48;;;;;;;33.75;13.88;;;;;;;-0.75;100.00;99073.31;5272788;28;20039;-72
2024/01/17 11:05:22;;;;;;;40.42;13.20;;;;;;;-0.71;100.00;99064.19;5276503;28;20074;-73
2024/01/17 11:07:54;;;;;;;33.50;13.45;;;;;;;-0.82;100.00;99060.72;5278557;28;20016;-73
2024/01/17 11:10:27;;;;;;;36.75;13.80;;;;;;;-0.77;100.00;99059.47;5268584;28;20019;-73
2024/01/17 11:12:58;;;;;;;36.22;14.65;;;;;;;-0.76;100.00;99050.59;5271202;28;20031;-73
2024/01/17 11:15:30;;;;;;;35.13;14.15;;;;;;;-0.81;100.00;99046.56;5272228;28;20023;-72
2024/01/17 11:18:01;;;;;;;37.70;13.80;;;;;;;-0.76;100.00;99042.69;5266899;28;20027;-72
2024/01/17 11:20:32;;;;;;;33.75;13.75;;;;;;;-0.74;100.00;99043.41;5281018;28;20481;-72
2024/01/17 11:23:03;;;;;;;32.10;14.48;;;;;;;-0.70;100.00;99028.97;5277775;28;20072;-73
2024/01/17 11:25:47;;;;;;;33.10;13.88;;;;;;;-0.65;100.00;99024.16;5270833;28;20526;-73